Latest Weather Observations for Strathalbyn

IDS60801

Issued at 10:01 am CST Tuesday 16 August 2022 (issued every 10 minutes, with the page automatically refreshed every 10 minutes)

About weather observations | Map of weather stations | Latest weather observations for SA | Other Formats
Station Details ID: 024580 Name: STRATHALBYN RACECOURSE Lat: -35.28 Lon: 138.89 Height: 58.0 m
Data from the previous 72 hours. | See also: Recent months at Strathalbyn
Date/Time
CST
Temp
°C
App
Temp
°C
Dew
Point
°C
Rel
Hum
%
Delta-T
°C
Wind Press
QNH
hPa
Press
MSL
hPa
Rain since
9am
mm
Dir  Spd
km/h
Gust
km/h
Spd
kts
Gust
kts
16/10:00am 13.8 8.1 6.9 63 3.3 SSW 26 33 14 18 1020.0 1020.0 0.0
16/09:30am 12.9 8.8 8.0 72 2.4 SSW 19 24 10 13 1019.7 1019.8 0.0
16/09:00am 12.9 9.6 8.0 72 2.4 SW 15 20 8 11 1019.6 1019.7 9.4
16/08:30am 12.0 9.0 7.7 75 2.1 WSW 13 20 7 11 1019.4 1019.5 9.4
16/08:00am 11.7 8.3 7.6 76 2.0 WSW 15 20 8 11 1019.1 1019.2 9.4
16/07:30am 10.7 7.2 7.2 79 1.7 WSW 15 20 8 11 1019.0 1019.1 9.4
16/07:00am 10.5 6.6 7.2 80 1.6 WSW 17 24 9 13 1018.5 1018.6 9.4
16/06:30am 10.0 6.1 6.9 81 1.5 W 17 24 9 13 1017.9 1018.0 9.4
16/06:00am 9.7 5.7 6.8 82 1.4 W 17 26 9 14 1017.2 1017.3 9.4
16/05:30am 9.5 5.4 6.4 81 1.4 W 17 22 9 12 1016.7 1016.8 9.4
16/05:00am 9.3 6.0 6.2 81 1.4 W 13 17 7 9 1016.2 1016.3 9.4
16/04:30am 9.9 5.5 6.4 79 1.6 W 19 26 10 14 1015.9 1016.0 9.4
16/04:00am 10.5 6.5 6.6 77 1.8 WSW 17 20 9 11 1015.5 1015.6 9.4
16/03:30am 9.8 6.1 6.2 78 1.7 W 15 19 8 10 1015.2 1015.3 9.2
16/03:00am 9.3 5.2 6.0 80 1.5 W 17 20 9 11 1015.0 1015.1 9.2
16/02:30am 9.3 5.5 5.9 79 1.6 W 15 19 8 10 1015.3 1015.4 9.2
16/02:00am 9.4 6.0 5.8 78 1.6 W 13 17 7 9 1015.3 1015.4 9.2
16/01:30am 10.0 6.3 6.3 78 1.7 W 15 20 8 11 1015.4 1015.5 9.2
16/01:00am 9.8 6.1 6.3 79 1.6 W 15 20 8 11 1015.2 1015.3 9.2
16/12:30am 9.9 6.2 6.4 79 1.6 W 15 20 8 11 1015.1 1015.2 9.2
16/12:00am 9.8 6.5 6.5 80 1.5 W 13 19 7 10 1015.0 1015.1 9.2
 
Date/Time
CST
Temp
°C
App
Temp
°C
Dew
Point
°C
Rel
Hum
%
Delta-T
°C
Wind Press
QNH
hPa
Press
MSL
hPa
Rain since
9am
mm
Dir  Spd
km/h
Gust
km/h
Spd
kts
Gust
kts
15/11:30pm 10.0 6.0 6.5 79 1.6 W 17 20 9 11 1014.6 1014.7 9.0
15/11:00pm 10.5 6.6 7.0 79 1.7 W 17 22 9 12 1014.4 1014.5 8.8
15/10:30pm 9.6 5.9 6.3 80 1.5 W 15 19 8 10 1014.1 1014.2 8.8
15/10:00pm 10.0 6.0 6.7 80 1.6 W 17 20 9 11 1013.9 1014.0 8.8
15/09:30pm 10.2 6.7 7.1 81 1.5 W 15 17 8 9 1013.6 1013.7 8.8
15/09:00pm 9.8 6.7 7.1 83 1.3 W 13 17 7 9 1013.4 1013.5 8.8
15/08:30pm 10.1 7.0 7.3 83 1.3 W 13 17 7 9 1013.2 1013.3 8.8
15/08:00pm 10.2 7.1 7.4 83 1.3 W 13 17 7 9 1012.9 1013.0 8.8
15/07:30pm 10.5 7.9 7.9 84 1.3 W 11 13 6 7 1012.7 1012.8 8.8
15/07:00pm 10.3 7.7 7.7 84 1.3 W 11 13 6 7 1012.4 1012.4 8.8
15/06:30pm 9.7 7.3 7.0 83 1.3 WNW 9 13 5 7 1012.0 1012.0 8.4
15/06:00pm 9.8 6.6 6.9 82 1.4 W 13 15 7 8 1011.4 1011.4 8.4
15/05:30pm 10.3 7.6 7.4 82 1.4 W 11 13 6 7 1010.9 1010.9 8.4
15/05:00pm 11.4 9.0 8.6 83 1.4 W 11 15 6 8 1010.5 1010.5 8.4
15/04:30pm 11.0 8.6 8.8 86 1.1 SW 11 15 6 8 1010.2 1010.2 8.4
15/04:00pm 10.9 9.5 8.7 86 1.1 NW 6 7 3 4 1009.9 1009.9 8.2
15/03:30pm 10.7 8.5 7.9 83 1.4 SW 9 17 5 9 1009.8 1009.8 7.0
15/03:00pm 11.9 9.5 8.7 81 1.6 S 11 17 6 9 1009.4 1009.4 0.8
15/02:30pm 10.4 4.3 6.4 76 1.9 S 28 43 15 23 1009.4 1009.4 0.8
15/02:25pm 11.1 6.0 5.8 70 2.5 S 22 43 12 23 1009.4 1009.4 0.6
15/02:00pm 13.7 11.2 8.3 70 2.7 WSW 11 17 6 9 1009.0 1009.0 0.6
15/01:30pm 13.6 9.3 8.0 69 2.8 W 20 32 11 17 1009.2 1009.2 0.6
15/01:00pm 12.6 8.2 7.3 70 2.6 W 20 37 11 20 1009.3 1009.3 0.4
15/12:30pm 15.0 10.7 8.0 63 3.5 W 20 30 11 16 1009.4 1009.4 0.0
15/12:00pm 14.3 10.6 7.8 65 3.2 W 17 26 9 14 1009.6 1009.6 0.0
15/11:30am 14.5 10.4 7.8 64 3.3 WNW 19 26 10 14 1009.8 1009.8 0.0
15/11:00am 14.2 9.4 7.5 64 3.3 WNW 22 30 12 16 1009.9 1009.9 0.0
15/10:30am 13.6 9.3 8.0 69 2.8 WNW 20 28 11 15 1010.0 1010.0 0.0
15/10:00am 12.7 8.4 8.0 73 2.3 W 20 30 11 16 1010.3 1010.3 0.0
15/09:30am 12.6 8.4 8.1 74 2.2 WNW 20 32 11 17 1010.3 1010.3 0.0
15/09:00am 11.6 8.7 8.1 79 1.7 WNW 13 19 7 10 1010.3 1010.3 3.4
15/08:30am 10.3 7.2 7.4 82 1.4 WNW 13 17 7 9 1010.4 1010.4 3.2
15/08:00am 9.7 5.4 7.0 83 1.3 WNW 19 30 10 16 1010.4 1010.4 3.0
15/07:30am 10.5 7.0 7.4 81 1.5 W 15 19 8 10 1010.2 1010.2 1.6
15/07:00am 10.7 7.3 7.6 81 1.5 NW 15 20 8 11 1009.8 1009.8 1.0
15/06:30am 10.6 7.6 7.7 82 1.4 NW 13 20 7 11 1009.9 1009.9 1.0
15/06:00am 10.7 7.6 7.4 80 1.6 WNW 13 17 7 9 1009.7 1009.7 1.0
15/05:30am 10.2 7.5 7.3 82 1.4 NW 11 13 6 7 1009.8 1009.8 1.0
15/05:00am 10.2 7.5 7.3 82 1.4 W 11 15 6 8 1009.8 1009.8 1.0
15/04:30am 10.7 7.7 7.9 83 1.4 W 13 22 7 12 1010.0 1010.0 0.4
15/04:00am 10.5 8.6 7.7 83 1.4 NW 7 9 4 5 1009.9 1009.9 0.2
15/03:30am 10.8 8.3 8.2 84 1.3 WNW 11 15 6 8 1010.1 1010.1 0.2
15/03:00am 9.6 7.6 7.2 85 1.1 W 7 11 4 6 1010.3 1010.3 0.0
15/02:30am 9.0 8.2 6.3 83 1.2 CALM 0 0 0 0 1010.5 1010.5 0.0
15/02:00am 9.5 7.5 6.4 81 1.4 WNW 6 7 3 4 1010.8 1010.8 0.0
15/01:30am 11.0 8.4 7.9 81 1.5 W 11 15 6 8 1011.2 1011.2 0.0
15/01:00am 11.1 8.2 8.0 81 1.5 W 13 15 7 8 1011.4 1011.4 0.0
15/12:30am 11.4 8.5 8.3 81 1.5 WNW 13 19 7 10 1011.6 1011.6 0.0
15/12:00am 11.1 9.0 8.1 82 1.5 WNW 9 13 5 7 1012.0 1012.0 0.0
 
Date/Time
CST
Temp
°C
App
Temp
°C
Dew
Point
°C
Rel
Hum
%
Delta-T
°C
Wind Press
QNH
hPa
Press
MSL
hPa
Rain since
9am
mm
Dir  Spd
km/h
Gust
km/h
Spd
kts
Gust
kts
14/11:30pm 11.2 8.7 8.4 83 1.4 W 11 15 6 8 1012.1 1012.1 0.0
14/11:00pm 10.3 8.4 7.5 83 1.3 NNW 7 9 4 5 1012.2 1012.2 0.0
14/10:30pm 10.3 9.7 7.5 83 1.3 CALM 0 0 0 0 1012.5 1012.6 0.0
14/10:00pm 10.0 9.3 6.9 81 1.5 CALM 0 0 0 0 1012.6 1012.7 0.0
14/09:30pm 10.8 9.1 7.7 81 1.5 E 6 9 3 5 1012.8 1012.9 0.0
14/09:00pm 11.1 8.2 8.0 81 1.5 NNW 13 15 7 8 1013.0 1013.1 0.0
14/08:30pm 9.9 7.8 6.8 81 1.5 NNW 7 11 4 6 1013.1 1013.2 0.0
14/08:00pm 10.2 8.2 7.1 81 1.5 N 7 11 4 6 1013.0 1013.1 0.0
14/07:30pm 10.3 8.3 7.0 80 1.6 N 7 9 4 5 1013.0 1013.1 0.0
14/07:00pm 10.0 7.5 6.7 80 1.6 NNW 9 11 5 6 1013.0 1013.1 0.0
14/06:30pm 10.2 7.0 6.7 79 1.6 NW 13 15 7 8 1012.8 1012.9 0.0
14/06:00pm 11.0 8.1 6.7 75 2.0 WNW 11 15 6 8 1012.8 1012.9 0.0
14/05:30pm 12.2 9.4 6.9 70 2.5 WNW 11 17 6 9 1012.7 1012.8 0.0
14/05:00pm 12.9 9.4 7.4 69 2.7 W 15 20 8 11 1012.7 1012.8 0.0
14/04:30pm 13.9 10.8 7.4 65 3.2 WSW 13 20 7 11 1012.5 1012.6 0.0
14/04:00pm 14.7 11.1 8.2 65 3.3 W 17 26 9 14 1012.7 1012.8 0.0
14/03:30pm 14.2 12.2 10.0 76 2.2 SSW 11 15 6 8 1012.8 1012.9 0.0
14/03:00pm 13.4 11.8 10.2 81 1.7 SSW 9 15 5 8 1013.0 1013.1 0.0
14/02:30pm 12.4 8.4 8.9 79 1.8 SW 20 28 11 15 1013.1 1013.2 0.0
14/02:00pm 14.3 10.9 9.1 71 2.7 W 17 24 9 13 1013.1 1013.2 0.0
14/01:30pm 15.3 11.8 7.3 59 4.0 WSW 15 22 8 12 1013.3 1013.4 0.0
14/01:00pm 14.8 12.4 8.7 67 3.1 SW 11 17 6 9 1013.7 1013.8 0.0
14/12:30pm 14.1 11.7 8.7 70 2.7 SSW 11 19 6 10 1014.0 1014.1 0.0
14/12:00pm 14.6 10.6 8.1 65 3.3 SW 19 26 10 14 1014.2 1014.3 0.0
14/11:30am 14.6 12.0 7.9 64 3.3 W 11 17 6 9 1014.6 1014.7 0.0
14/11:00am 13.5 9.5 8.4 71 2.6 W 19 26 10 14 1014.9 1015.0 0.0
14/10:30am 14.6 12.0 9.2 70 2.8 WSW 13 19 7 10 1014.8 1014.9 0.0
14/10:00am 14.0 10.9 9.0 72 2.5 W 15 20 8 11 1015.0 1015.1 0.0
14/09:30am 13.2 9.7 8.9 75 2.2 W 17 20 9 11 1015.0 1015.1 0.0
14/09:00am 12.3 9.1 8.6 78 1.8 WNW 15 20 8 11 1014.9 1015.0 1.8
14/08:30am 10.9 8.3 7.6 80 1.6 WNW 11 17 6 9 1014.9 1015.0 1.8
14/08:00am 11.7 8.9 8.7 82 1.5 W 13 17 7 9 1014.6 1014.7 1.8
14/07:30am 10.1 6.6 7.3 83 1.3 W 15 17 8 9 1014.3 1014.4 1.8
14/07:00am 9.3 6.0 6.6 83 1.3 W 13 15 7 8 1013.7 1013.8 1.8
14/06:30am 9.7 6.2 7.0 83 1.3 W 15 19 8 10 1013.6 1013.7 1.8
14/06:00am 9.7 6.1 6.8 82 1.4 W 15 20 8 11 1013.5 1013.6 1.8
14/05:30am 9.5 6.2 6.6 82 1.4 W 13 17 7 9 1013.1 1013.2 1.8
14/05:00am 9.7 6.2 7.0 83 1.3 W 15 20 8 11 1013.2 1013.3 1.8
14/04:30am 9.8 5.9 6.9 82 1.4 W 17 20 9 11 1013.1 1013.2 1.8
14/04:00am 9.8 5.9 6.9 82 1.4 W 17 22 9 12 1013.1 1013.2 1.8
14/03:30am 9.6 5.6 6.7 82 1.4 W 17 20 9 11 1013.0 1013.1 1.8
14/03:00am 9.8 6.2 6.7 81 1.5 W 15 19 8 10 1013.2 1013.3 1.8
14/02:30am 10.0 6.4 6.9 81 1.5 W 15 20 8 11 1013.3 1013.4 1.8
14/02:00am 10.1 6.6 7.0 81 1.5 W 15 20 8 11 1013.6 1013.7 1.8
14/01:30am 10.0 6.8 6.9 81 1.5 W 13 20 7 11 1013.7 1013.8 1.8
14/01:00am 10.0 5.6 6.7 80 1.6 W 19 22 10 12 1013.6 1013.7 1.6
14/12:30am 9.9 6.0 7.0 82 1.4 W 17 20 9 11 1013.6 1013.7 1.6
14/12:00am 10.0 6.1 7.3 83 1.3 W 17 20 9 11 1013.8 1013.9 1.6
 
Date/Time
CST
Temp
°C
App
Temp
°C
Dew
Point
°C
Rel
Hum
%
Delta-T
°C
Wind Press
QNH
hPa
Press
MSL
hPa
Rain since
9am
mm
Dir  Spd
km/h
Gust
km/h
Spd
kts
Gust
kts
13/11:30pm 10.4 7.0 7.8 84 1.3 WSW 15 19 8 10 1013.9 1014.0 1.4
13/11:00pm 10.3 8.4 7.7 84 1.3 S 7 13 4 7 1014.1 1014.2 1.2
13/10:30pm 10.5 7.9 7.7 83 1.4 WSW 11 17 6 9 1014.2 1014.3 0.8
13/10:00pm 10.3 6.9 7.5 83 1.3 W 15 20 8 11 1014.0 1014.1 0.4
13/09:30pm 10.2 6.7 7.3 82 1.4 W 15 19 8 10 1014.2 1014.3 0.4
13/09:00pm 10.5 7.1 7.6 82 1.4 W 15 22 8 12 1014.1 1014.2 0.4
13/08:30pm 10.6 7.1 7.3 80 1.6 W 15 20 8 11 1014.1 1014.2 0.4
13/08:00pm 10.7 6.8 7.2 79 1.7 W 17 20 9 11 1013.7 1013.8 0.4
13/07:30pm 10.6 6.7 7.1 79 1.7 W 17 20 9 11 1013.4 1013.5 0.4
13/07:00pm 10.5 6.9 6.8 78 1.7 W 15 20 8 11 1013.2 1013.3 0.4
13/06:30pm 10.2 6.9 6.5 78 1.7 W 13 17 7 9 1012.8 1012.9 0.4
13/06:00pm 10.4 7.5 6.5 77 1.8 WSW 11 13 6 7 1012.7 1012.8 0.4
13/05:30pm 11.3 8.6 7.2 76 2.0 WSW 11 15 6 8 1012.8 1012.9 0.4
13/05:00pm 11.8 8.9 8.1 78 1.8 SW 13 20 7 11 1012.5 1012.6 0.4
13/04:30pm 12.2 8.1 7.9 75 2.1 SSW 19 22 10 12 1012.4 1012.4 0.4
13/04:00pm 13.4 9.8 8.5 72 2.5 SSW 17 26 9 14 1012.2 1012.2 0.4
13/03:30pm 13.7 9.6 8.7 72 2.5 SSW 20 28 11 15 1012.0 1012.0 0.4
13/03:00pm 13.6 8.9 9.3 75 2.2 SSW 24 32 13 17 1012.2 1012.2 0.2
13/02:30pm 13.3 8.0 8.6 73 2.4 SSW 26 35 14 19 1011.9 1011.9 0.2
13/02:00pm 13.8 8.4 8.0 68 2.9 SW 26 39 14 21 1012.1 1012.1 0.2
13/01:30pm 14.8 10.7 8.7 67 3.1 SW 20 28 11 15 1012.0 1012.0 0.2
13/01:00pm 13.3 8.7 8.0 70 2.6 SW 22 28 12 15 1012.3 1012.3 0.2
13/12:30pm 13.8 9.7 8.6 71 2.6 SW 20 28 11 15 1012.6 1012.7 0.2
13/12:00pm 14.0 10.1 8.6 70 2.7 SW 19 28 10 15 1012.8 1012.9 0.2
13/11:30am 13.4 8.4 8.0 70 2.7 SSW 24 32 13 17 1013.1 1013.2 0.0
13/11:00am 14.1 10.2 7.2 63 3.4 SW 17 26 9 14 1013.0 1013.1 0.0
13/10:30am 13.9 10.3 8.3 69 2.8 SW 17 24 9 13 1013.2 1013.3 0.0

Other formats

Comma delimited format used in spreadsheet applications
http://www.bom.gov.au/fwo/IDS60801/IDS60801.94814.axf

JavaScript Object Notation format (JSON) in row-major order
http://www.bom.gov.au/fwo/IDS60801/IDS60801.94814.json

Data quality

Most of these data are generated automatically and are frequently updated. Quality checks on data are not normally performed. It is possible for incorrect values to appear. Refer to information at About Latest Weather Observations and please check the disclaimer before using these data.